Time;durP1;ratioP1;P1;durP2;ratioP2;P2;SDS_P1;SDS_P2;PMS_P1;PMS_P2;Temp;Humidity;BMP_temperature;BMP_pressure;BME280_temperature;BME280_humidity;BME280_pressure;Samples;Min_cycle;Max_cycle;Signal;HPM_P1;HPM_P2
2022/03/04 00:01:13;;;;;;;10.23;7.83;;;2.70;53.70;;;;;;942816;148;27313;-76
2022/03/04 00:03:40;;;;;;;11.40;8.77;;;2.70;53.80;;;;;;942546;149;27334;-77
2022/03/04 00:06:07;;;;;;;8.63;7.23;;;2.70;53.90;;;;;;941288;149;27431;-77
2022/03/04 00:08:33;;;;;;;12.30;8.53;;;2.70;54.00;;;;;;941091;149;27443;-77
2022/03/04 00:11:00;;;;;;;14.00;8.47;;;2.70;54.10;;;;;;942076;149;27385;-77
2022/03/04 00:13:26;;;;;;;12.57;8.20;;;2.60;54.00;;;;;;942028;149;27480;-77
2022/03/04 00:15:53;;;;;;;8.30;7.27;;;2.60;54.10;;;;;;941316;149;27894;-77
2022/03/04 00:18:19;;;;;;;13.83;7.50;;;2.50;54.20;;;;;;941368;149;27326;-77
2022/03/04 00:20:46;;;;;;;12.50;8.53;;;2.40;54.20;;;;;;941343;149;27298;-77
2022/03/04 00:23:12;;;;;;;9.60;7.73;;;2.40;54.30;;;;;;942082;149;27347;-77
2022/03/04 00:25:39;;;;;;;12.53;8.60;;;2.40;54.40;;;;;;941745;149;28000;-77
2022/03/04 00:28:06;;;;;;;10.60;8.53;;;2.40;54.50;;;;;;941886;149;27330;-77
2022/03/04 00:30:32;;;;;;;10.37;7.77;;;2.30;54.50;;;;;;941994;149;27898;-77
2022/03/04 00:32:59;;;;;;;9.70;7.20;;;2.30;54.70;;;;;;942879;149;27455;-77
2022/03/04 00:35:25;;;;;;;8.63;7.20;;;2.20;54.70;;;;;;942416;149;27349;-77
2022/03/04 00:37:52;;;;;;;9.90;7.73;;;2.20;54.80;;;;;;941169;149;27389;-77
2022/03/04 00:40:19;;;;;;;11.17;7.90;;;2.20;54.80;;;;;;942525;149;27291;-77
2022/03/04 00:42:45;;;;;;;9.27;7.83;;;2.20;55.00;;;;;;942735;149;27284;-77
2022/03/04 00:45:12;;;;;;;10.63;8.17;;;2.10;54.90;;;;;;942874;149;27330;-77
2022/03/04 00:47:38;;;;;;;9.93;7.77;;;2.10;54.90;;;;;;942378;149;27411;-77
2022/03/04 00:50:05;;;;;;;10.23;7.53;;;2.10;55.00;;;;;;942178;149;27455;-77
2022/03/04 00:52:32;;;;;;;10.23;7.67;;;2.10;55.10;;;;;;942029;149;27354;-77
2022/03/04 00:54:58;;;;;;;11.47;7.50;;;2.10;55.30;;;;;;943606;149;27367;-77
2022/03/04 00:57:25;;;;;;;11.13;7.63;;;2.00;55.80;;;;;;942044;149;27352;-77
2022/03/04 00:59:51;;;;;;;9.30;7.37;;;2.00;55.30;;;;;;942652;149;27369;-77
2022/03/04 01:02:18;;;;;;;8.90;7.30;;;2.00;55.40;;;;;;941237;149;27468;-81
2022/03/04 01:04:45;;;;;;;10.63;7.70;;;1.90;55.30;;;;;;942046;149;27447;-77
2022/03/04 01:09:47;;;;;;;9.30;7.60;;;1.90;55.60;;;;;;914519;148;27507;-78
2022/03/04 01:12:13;;;;;;;11.53;8.37;;;1.80;55.40;;;;;;913258;152;27390;-78
2022/03/04 01:14:40;;;;;;;8.73;6.67;;;1.80;55.60;;;;;;913938;152;27664;-79
2022/03/04 01:17:07;;;;;;;9.60;7.00;;;1.80;55.60;;;;;;914044;152;27397;-79
2022/03/04 01:19:33;;;;;;;9.27;6.97;;;1.70;55.80;;;;;;912940;152;27423;-79
2022/03/04 01:22:00;;;;;;;9.67;7.43;;;1.70;55.80;;;;;;914433;152;27307;-79
2022/03/04 01:24:26;;;;;;;8.90;6.47;;;1.60;55.90;;;;;;913399;152;27405;-79
2022/03/04 01:26:53;;;;;;;9.43;6.90;;;1.60;56.00;;;;;;912866;152;27471;-79
2022/03/04 01:29:20;;;;;;;8.00;7.20;;;1.60;55.90;;;;;;913449;152;27451;-79
2022/03/04 01:31:46;;;;;;;11.23;7.07;;;1.50;55.50;;;;;;912858;152;27374;-79
2022/03/04 01:34:13;;;;;;;8.90;6.53;;;1.50;56.30;;;;;;913607;152;27714;-79
2022/03/04 01:36:39;;;;;;;8.83;7.43;;;1.40;56.30;;;;;;913463;152;27359;-79
2022/03/04 01:39:07;;;;;;;9.37;7.50;;;1.40;56.40;;;;;;912999;152;27315;-79
2022/03/04 01:41:32;;;;;;;9.90;7.77;;;1.40;56.50;;;;;;913319;152;27381;-80
2022/03/04 01:43:59;;;;;;;8.77;7.33;;;1.40;56.60;;;;;;914413;152;27397;-80
2022/03/04 01:46:26;;;;;;;8.17;6.80;;;1.30;56.60;;;;;;912940;152;27471;-79
2022/03/04 01:48:52;;;;;;;8.30;6.40;;;1.30;56.70;;;;;;912714;152;27314;-79
2022/03/04 01:51:19;;;;;;;8.17;6.77;;;1.30;56.80;;;;;;913008;152;27283;-79
2022/03/04 01:53:45;;;;;;;8.50;6.43;;;1.20;56.90;;;;;;912648;152;27390;-79
2022/03/04 01:56:12;;;;;;;11.07;7.87;;;1.20;57.00;;;;;;913999;152;27451;-79
2022/03/04 01:58:39;;;;;;;10.17;8.07;;;1.10;57.00;;;;;;913191;152;27295;-80
2022/03/04 02:01:05;;;;;;;9.97;7.30;;;1.10;57.00;;;;;;913199;152;27326;-79
2022/03/04 02:03:32;;;;;;;10.73;7.97;;;1.10;57.10;;;;;;912854;152;27386;-79
2022/03/04 02:05:58;;;;;;;10.53;7.60;;;1.10;57.30;;;;;;912678;155;27343;-79
2022/03/04 02:08:25;;;;;;;8.07;6.60;;;1.00;57.30;;;;;;916400;151;29258;-79
2022/03/04 02:10:51;;;;;;;10.10;7.40;;;1.00;57.30;;;;;;928418;151;27391;-79
2022/03/04 02:13:19;;;;;;;8.97;7.07;;;1.00;57.30;;;;;;928780;151;27896;-79
2022/03/04 02:15:45;;;;;;;10.30;7.47;;;0.90;57.30;;;;;;928076;152;27355;-79
2022/03/04 02:18:11;;;;;;;9.77;6.20;;;0.90;57.50;;;;;;897237;156;27438;-79
2022/03/04 02:20:38;;;;;;;10.53;7.53;;;0.90;57.50;;;;;;911859;154;27393;-79
2022/03/04 02:23:04;;;;;;;7.90;6.70;;;0.80;57.50;;;;;;912762;154;27489;-79
2022/03/04 02:25:31;;;;;;;8.37;6.77;;;0.90;57.80;;;;;;912925;154;27367;-79
2022/03/04 02:27:58;;;;;;;10.53;7.60;;;0.80;57.70;;;;;;913336;153;27447;-79
2022/03/04 02:30:24;;;;;;;9.23;7.20;;;0.80;57.80;;;;;;913529;153;27327;-80
2022/03/04 02:32:51;;;;;;;8.67;6.37;;;0.80;57.90;;;;;;912644;154;27358;-79
2022/03/04 02:35:17;;;;;;;10.77;7.70;;;0.80;57.90;;;;;;913026;154;27383;-79
2022/03/04 02:37:44;;;;;;;9.27;7.00;;;0.80;57.90;;;;;;912922;154;27386;-80
2022/03/04 02:40:11;;;;;;;12.07;7.57;;;0.80;58.00;;;;;;913134;153;28850;-80
2022/03/04 02:42:37;;;;;;;11.23;7.90;;;0.80;58.10;;;;;;912939;154;27390;-79
2022/03/04 02:45:04;;;;;;;9.03;7.53;;;0.80;58.10;;;;;;912231;154;27339;-80
2022/03/04 02:47:30;;;;;;;9.17;7.07;;;0.80;58.10;;;;;;915690;153;27417;-79
2022/03/04 02:49:57;;;;;;;9.13;7.23;;;0.80;58.10;;;;;;912061;154;27321;-80
2022/03/04 02:52:24;;;;;;;11.07;7.43;;;0.80;58.20;;;;;;912331;153;27451;-79
2022/03/04 02:54:50;;;;;;;8.63;6.70;;;0.70;58.20;;;;;;912895;153;27460;-79
2022/03/04 02:57:17;;;;;;;11.40;7.77;;;0.70;58.30;;;;;;913294;153;27406;-80
2022/03/04 02:59:43;;;;;;;8.67;7.10;;;0.60;58.30;;;;;;913074;154;27373;-79
2022/03/04 03:02:10;;;;;;;9.30;6.97;;;0.60;58.40;;;;;;913070;154;27323;-79
2022/03/04 03:04:37;;;;;;;10.53;6.67;;;0.60;58.50;;;;;;896882;157;27369;-79
2022/03/04 03:07:03;;;;;;;10.73;8.23;;;0.60;58.50;;;;;;897232;157;27425;-78
2022/03/04 03:09:30;;;;;;;9.90;6.97;;;0.50;58.50;;;;;;896997;157;27908;-78
2022/03/04 03:11:56;;;;;;;11.13;7.97;;;0.50;58.50;;;;;;896642;157;27397;-79
2022/03/04 03:14:23;;;;;;;12.00;8.60;;;0.50;58.50;;;;;;896461;157;27425;-79
2022/03/04 03:16:50;;;;;;;9.63;7.43;;;0.50;58.50;;;;;;915127;154;27871;-79
2022/03/04 03:19:16;;;;;;;13.57;8.67;;;0.50;58.60;;;;;;912309;154;27331;-79
2022/03/04 03:21:43;;;;;;;11.63;8.63;;;0.50;58.80;;;;;;912992;154;27382;-79
2022/03/04 03:24:09;;;;;;;11.77;8.53;;;0.60;58.50;;;;;;897496;156;27452;-79
2022/03/04 03:26:36;;;;;;;12.50;8.60;;;0.60;58.50;;;;;;896664;157;27335;-79
2022/03/04 03:29:02;;;;;;;9.83;8.20;;;0.60;58.70;;;;;;896524;157;27402;-79
2022/03/04 03:31:29;;;;;;;11.13;8.80;;;0.60;58.60;;;;;;897693;157;27748;-79
2022/03/04 03:33:56;;;;;;;11.23;8.80;;;0.60;58.60;;;;;;897514;157;27566;-79
2022/03/04 03:36:22;;;;;;;10.53;8.60;;;0.60;58.60;;;;;;912950;153;27423;-77
2022/03/04 03:38:49;;;;;;;12.30;8.93;;;0.60;58.40;;;;;;912653;153;27464;-78
2022/03/04 03:41:15;;;;;;;15.73;9.83;;;0.70;58.70;;;;;;912409;153;27409;-77
2022/03/04 03:43:42;;;;;;;13.00;9.53;;;0.70;58.80;;;;;;912430;154;27592;-77
2022/03/04 03:46:09;;;;;;;12.20;8.93;;;0.70;58.90;;;;;;912079;153;27350;-78
2022/03/04 03:48:39;;;;;;;13.40;9.33;;;0.70;58.90;;;;;;912553;154;27407;-77
2022/03/04 03:51:02;;;;;;;11.73;8.63;;;0.80;58.80;;;;;;912135;153;28321;-77
2022/03/04 03:53:28;;;;;;;11.23;9.13;;;0.80;59.00;;;;;;912875;153;27378;-77
2022/03/04 03:55:55;;;;;;;11.60;9.27;;;0.80;58.50;;;;;;912711;154;27290;-77
2022/03/04 03:58:21;;;;;;;12.17;8.53;;;0.80;58.30;;;;;;912431;154;27453;-77
2022/03/04 04:00:48;;;;;;;12.87;9.17;;;0.80;58.50;;;;;;912498;153;27424;-77
2022/03/04 04:03:15;;;;;;;11.37;7.90;;;0.90;58.50;;;;;;912383;154;27423;-77
2022/03/04 04:05:41;;;;;;;12.37;8.90;;;0.90;58.60;;;;;;912290;154;27475;-78
2022/03/04 04:08:08;;;;;;;10.83;8.43;;;0.90;58.60;;;;;;913331;153;27437;-77
2022/03/04 04:10:34;;;;;;;11.67;9.40;;;1.00;58.30;;;;;;912736;154;27428;-77
2022/03/04 04:13:01;;;;;;;10.60;8.80;;;1.00;58.10;;;;;;913585;154;27358;-77
2022/03/04 04:15:27;;;;;;;11.23;9.13;;;1.00;58.10;;;;;;913465;154;27291;-77
2022/03/04 04:17:54;;;;;;;14.13;8.97;;;1.00;58.10;;;;;;913519;153;27467;-77
2022/03/04 04:20:21;;;;;;;12.83;9.53;;;1.00;58.10;;;;;;913493;153;27331;-77
2022/03/04 04:22:47;;;;;;;12.13;9.10;;;1.10;58.30;;;;;;913778;154;27292;-78
2022/03/04 04:25:14;;;;;;;11.37;9.70;;;1.10;58.20;;;;;;913888;154;27403;-78
2022/03/04 04:27:40;;;;;;;11.03;8.37;;;1.10;58.40;;;;;;913986;154;27412;-77
2022/03/04 04:30:07;;;;;;;11.27;8.43;;;1.10;58.10;;;;;;913506;155;27351;-78
2022/03/04 04:32:34;;;;;;;11.40;8.47;;;1.10;58.60;;;;;;913556;154;27425;-77
2022/03/04 04:35:00;;;;;;;12.27;9.80;;;1.10;59.20;;;;;;913831;154;27405;-77
2022/03/04 04:37:27;;;;;;;12.63;9.97;;;1.00;58.40;;;;;;914551;154;27371;-77
2022/03/04 04:39:54;;;;;;;12.00;8.83;;;1.00;58.70;;;;;;913628;154;27397;-78
2022/03/04 04:42:20;;;;;;;12.63;9.20;;;1.00;58.80;;;;;;913644;154;27394;-78
2022/03/04 04:44:47;;;;;;;11.27;8.97;;;1.00;58.90;;;;;;913359;154;27402;-77
2022/03/04 04:47:13;;;;;;;11.83;8.70;;;0.90;58.90;;;;;;913238;154;27354;-77
2022/03/04 04:49:40;;;;;;;9.87;8.23;;;0.90;59.00;;;;;;913386;154;27354;-77
2022/03/04 04:52:06;;;;;;;9.97;8.10;;;0.90;59.10;;;;;;913621;154;27329;-77
2022/03/04 04:54:33;;;;;;;10.47;8.37;;;0.80;59.00;;;;;;913513;154;27347;-77
2022/03/04 04:57:00;;;;;;;11.47;8.10;;;0.80;59.10;;;;;;913854;153;27456;-77
2022/03/04 04:59:26;;;;;;;10.47;8.53;;;0.70;59.10;;;;;;913458;154;27475;-77
2022/03/04 05:01:53;;;;;;;14.33;8.57;;;0.70;59.20;;;;;;914109;153;27413;-77
2022/03/04 05:04:19;;;;;;;11.60;9.10;;;0.70;59.30;;;;;;913433;154;27389;-77
2022/03/04 05:06:46;;;;;;;11.67;8.00;;;0.60;59.30;;;;;;913633;154;28099;-77
2022/03/04 05:09:13;;;;;;;10.97;8.50;;;0.50;59.40;;;;;;914453;154;27412;-77
2022/03/04 05:11:40;;;;;;;11.77;8.60;;;0.50;59.40;;;;;;916043;154;27356;-77
2022/03/04 05:14:06;;;;;;;10.47;8.30;;;0.40;59.40;;;;;;915697;154;27380;-77
2022/03/04 05:16:32;;;;;;;12.47;7.93;;;0.40;59.60;;;;;;915928;154;27398;-78
2022/03/04 05:18:59;;;;;;;15.00;9.70;;;0.30;59.60;;;;;;915710;154;27427;-77
2022/03/04 05:21:25;;;;;;;9.03;6.73;;;0.30;59.80;;;;;;916069;154;27402;-77
2022/03/04 05:24:02;;;;;;;10.43;7.50;;;0.20;59.80;;;;;;915640;154;27412;-76
2022/03/04 05:26:27;;;;;;;13.47;9.17;;;0.20;59.90;;;;;;916243;154;27416;-76
2022/03/04 05:28:54;;;;;;;12.27;8.87;;;0.10;59.90;;;;;;912407;153;27443;-77
2022/03/04 05:31:21;;;;;;;15.00;10.53;;;0.10;60.00;;;;;;912708;154;27423;-77
2022/03/04 05:33:47;;;;;;;11.83;8.60;;;0.10;60.00;;;;;;912880;153;27359;-77
2022/03/04 05:36:14;;;;;;;19.47;12.00;;;0.00;60.20;;;;;;897870;157;27432;-76
2022/03/04 05:38:40;;;;;;;14.23;10.20;;;0.00;60.50;;;;;;913817;153;27472;-77
2022/03/04 05:41:07;;;;;;;12.07;8.93;;;0.00;60.50;;;;;;912948;154;27440;-76
2022/03/04 05:43:34;;;;;;;15.23;11.20;;;0.00;60.60;;;;;;912467;153;27346;-77
2022/03/04 05:46:00;;;;;;;13.97;9.77;;;-0.10;60.60;;;;;;912451;154;27375;-77
2022/03/04 05:48:27;;;;;;;14.53;9.80;;;-0.10;60.80;;;;;;912767;153;27386;-76
2022/03/04 05:50:53;;;;;;;13.63;10.20;;;-0.10;60.90;;;;;;912605;153;27460;-77
2022/03/04 05:53:20;;;;;;;13.73;10.10;;;-0.10;60.90;;;;;;913378;154;27375;-78
2022/03/04 05:55:47;;;;;;;14.33;10.33;;;-0.10;61.00;;;;;;912600;154;27386;-77
2022/03/04 05:58:13;;;;;;;12.30;9.47;;;-0.10;61.00;;;;;;912849;153;27477;-77
2022/03/04 06:00:40;;;;;;;15.73;10.40;;;-0.10;61.10;;;;;;912458;154;27339;-77
2022/03/04 06:03:07;;;;;;;12.43;9.97;;;-0.10;61.30;;;;;;913101;153;27381;-76
2022/03/04 06:05:33;;;;;;;13.43;9.20;;;-0.10;61.30;;;;;;913112;154;27413;-76
2022/03/04 06:07:59;;;;;;;11.60;7.93;;;-0.10;61.40;;;;;;913750;154;27722;-77
2022/03/04 06:10:26;;;;;;;12.20;8.43;;;-0.10;61.40;;;;;;912838;154;27347;-78
2022/03/04 06:12:53;;;;;;;10.57;7.77;;;-0.10;61.50;;;;;;916079;154;27508;-76
2022/03/04 06:15:19;;;;;;;12.40;8.40;;;-0.10;61.70;;;;;;912412;154;27377;-76
2022/03/04 06:17:49;;;;;;;14.13;8.60;;;-0.10;61.60;;;;;;912780;154;27370;-77
2022/03/04 06:20:15;;;;;;;15.67;9.73;;;0.00;61.70;;;;;;912828;153;27469;-76
2022/03/04 06:22:42;;;;;;;16.93;10.70;;;0.00;62.00;;;;;;912659;154;27464;-76
2022/03/04 06:25:10;;;;;;;13.13;10.20;;;0.10;62.50;;;;;;912686;153;27433;-78
2022/03/04 06:27:35;;;;;;;21.00;10.43;;;0.20;62.80;;;;;;912564;153;27426;-76
2022/03/04 06:30:02;;;;;;;13.03;9.63;;;0.30;63.00;;;;;;913051;154;27381;-76
2022/03/04 06:32:28;;;;;;;15.13;9.43;;;0.50;63.40;;;;;;912834;154;27480;-75
2022/03/04 06:34:55;;;;;;;12.70;10.00;;;0.80;63.60;;;;;;912850;153;27350;-75
2022/03/04 06:37:21;;;;;;;12.00;9.47;;;1.00;63.80;;;;;;913009;153;27307;-75
2022/03/04 06:39:48;;;;;;;14.13;10.03;;;1.40;63.90;;;;;;912694;154;27449;-76
2022/03/04 06:42:15;;;;;;;12.73;8.83;;;1.70;63.90;;;;;;913949;154;27437;-76
2022/03/04 06:44:41;;;;;;;13.10;9.70;;;2.00;63.80;;;;;;913056;154;27414;-77
2022/03/04 06:47:08;;;;;;;12.37;10.13;;;2.40;63.70;;;;;;913272;153;27396;-75
2022/03/04 06:49:35;;;;;;;14.60;9.83;;;2.90;63.60;;;;;;913089;154;27341;-75
2022/03/04 06:52:01;;;;;;;13.90;10.30;;;3.30;62.90;;;;;;912638;153;27331;-76
2022/03/04 06:54:28;;;;;;;12.63;9.77;;;3.80;63.20;;;;;;912224;154;27361;-76
2022/03/04 06:56:54;;;;;;;14.23;11.10;;;4.30;62.60;;;;;;912760;154;27426;-76
2022/03/04 06:59:21;;;;;;;13.80;11.37;;;4.80;62.40;;;;;;912792;154;27377;-77
2022/03/04 07:01:47;;;;;;;15.53;12.03;;;5.30;61.70;;;;;;912981;154;27455;-77
2022/03/04 07:04:14;;;;;;;15.17;11.87;;;5.90;61.30;;;;;;913351;154;27398;-76
2022/03/04 07:06:40;;;;;;;15.60;11.63;;;6.40;60.60;;;;;;912342;154;27468;-76
2022/03/04 07:09:07;;;;;;;16.33;12.10;;;6.80;60.00;;;;;;913188;153;27458;-77
2022/03/04 07:11:34;;;;;;;15.77;12.37;;;7.30;59.60;;;;;;912788;154;27968;-76
2022/03/04 07:14:00;;;;;;;15.57;12.57;;;7.80;59.20;;;;;;896835;156;27362;-77
2022/03/04 07:16:27;;;;;;;15.37;12.67;;;8.30;58.80;;;;;;930982;151;27430;-77
2022/03/04 07:18:53;;;;;;;16.30;13.57;;;8.70;58.40;;;;;;931734;150;27477;-76
2022/03/04 07:21:20;;;;;;;14.53;13.00;;;9.20;58.00;;;;;;911626;154;27345;-77
2022/03/04 07:23:47;;;;;;;17.57;14.50;;;9.70;57.60;;;;;;913746;153;27518;-76
2022/03/04 07:26:13;;;;;;;22.20;14.33;;;10.10;57.10;;;;;;913280;154;27283;-76
2022/03/04 07:28:40;;;;;;;15.70;13.87;;;10.60;56.70;;;;;;913740;153;27380;-76
2022/03/04 07:31:06;;;;;;;18.67;14.30;;;11.10;56.30;;;;;;914289;153;27373;-77
2022/03/04 07:33:36;;;;;;;18.77;14.10;;;11.50;55.80;;;;;;910660;155;27378;-76
2022/03/04 07:36:01;;;;;;;17.57;14.67;;;12.00;55.40;;;;;;913735;153;27424;-77
2022/03/04 07:38:26;;;;;;;17.80;15.20;;;12.50;55.10;;;;;;912203;154;27526;-77
2022/03/04 07:40:53;;;;;;;17.53;13.70;;;12.90;54.60;;;;;;916793;153;27404;-77
2022/03/04 07:43:22;;;;;;;16.43;14.40;;;13.40;54.20;;;;;;917410;153;27392;-77
2022/03/04 07:45:46;;;;;;;15.07;13.47;;;13.90;53.80;;;;;;917473;153;27421;-77
2022/03/04 07:48:12;;;;;;;16.13;14.10;;;14.40;53.40;;;;;;917702;153;27833;-77
2022/03/04 07:50:39;;;;;;;18.98;13.53;;;14.90;53.00;;;;;;917539;153;27344;-77
2022/03/04 07:53:06;;;;;;;15.78;13.08;;;15.40;52.40;;;;;;918270;153;27304;-77
2022/03/04 07:55:32;;;;;;;15.45;13.88;;;15.80;51.80;;;;;;917721;153;27815;-77
2022/03/04 07:57:59;;;;;;;14.18;12.68;;;16.20;51.20;;;;;;918732;153;27850;-77
2022/03/04 08:00:26;;;;;;;12.98;11.68;;;16.60;49.90;;;;;;917947;153;27431;-77
2022/03/04 08:02:52;;;;;;;13.03;11.73;;;17.00;50.00;;;;;;918581;153;27907;-77
2022/03/04 08:05:19;;;;;;;12.47;11.10;;;17.30;49.50;;;;;;917866;153;27321;-77
2022/03/04 08:07:45;;;;;;;15.28;13.62;;;17.60;49.00;;;;;;916791;153;27884;-78
2022/03/04 08:10:12;;;;;;;14.47;12.60;;;17.90;48.40;;;;;;917285;153;27355;-78
2022/03/04 08:12:38;;;;;;;12.75;11.45;;;18.10;47.80;;;;;;916733;153;27397;-78
2022/03/04 08:15:05;;;;;;;12.88;11.08;;;18.30;47.50;;;;;;912008;154;27386;-79
2022/03/04 08:17:32;;;;;;;13.70;12.30;;;18.50;47.10;;;;;;911991;154;27376;-78
2022/03/04 08:19:58;;;;;;;14.38;12.60;;;18.60;46.80;;;;;;912234;154;27331;-78
2022/03/04 08:22:25;;;;;;;13.93;12.37;;;18.80;46.60;;;;;;912504;154;27330;-78
2022/03/04 08:24:51;;;;;;;14.15;11.97;;;19.00;46.30;;;;;;912190;154;27323;-79
2022/03/04 08:27:18;;;;;;;15.28;12.43;;;19.20;45.80;;;;;;911871;154;27325;-79
2022/03/04 08:29:45;;;;;;;13.55;12.20;;;19.40;46.10;;;;;;911963;154;27738;-79
2022/03/04 08:32:11;;;;;;;14.43;12.25;;;19.50;45.20;;;;;;911510;154;27313;-79
2022/03/04 08:34:38;;;;;;;17.02;13.28;;;19.60;45.00;;;;;;912410;154;27377;-78
2022/03/04 08:37:04;;;;;;;14.38;12.88;;;19.80;44.90;;;;;;911262;154;27886;-79
2022/03/04 08:39:31;;;;;;;15.58;13.98;;;19.90;44.50;;;;;;912493;154;27358;-79
2022/03/04 08:41:58;;;;;;;14.50;12.98;;;20.10;44.10;;;;;;912315;154;27410;-79
2022/03/04 08:44:24;;;;;;;14.43;12.25;;;20.10;43.90;;;;;;912787;154;27359;-79
2022/03/04 08:46:51;;;;;;;15.43;13.25;;;20.20;43.40;;;;;;912600;154;27350;-80
2022/03/04 08:49:19;;;;;;;14.60;12.95;;;20.30;43.40;;;;;;912866;154;27378;-79
2022/03/04 08:51:44;;;;;;;14.18;12.60;;;20.30;43.40;;;;;;896166;157;27991;-79
2022/03/04 08:54:11;;;;;;;15.18;13.55;;;20.40;43.40;;;;;;898457;157;27406;-78
2022/03/04 08:56:37;;;;;;;16.10;14.05;;;20.60;43.30;;;;;;897292;157;27366;-78
2022/03/04 08:59:04;;;;;;;14.38;13.00;;;20.80;43.40;;;;;;897078;157;27821;-78
2022/03/04 09:01:30;;;;;;;15.68;14.07;;;21.00;43.30;;;;;;913031;154;27369;-78
2022/03/04 09:03:58;;;;;;;14.93;13.38;;;21.20;42.80;;;;;;928767;151;27412;-79
2022/03/04 09:06:24;;;;;;;14.28;12.82;;;21.40;42.60;;;;;;929226;151;27510;-79
2022/03/04 09:08:50;;;;;;;15.90;14.20;;;21.60;42.30;;;;;;928105;151;27442;-78
2022/03/04 09:11:17;;;;;;;15.32;13.75;;;21.80;42.00;;;;;;928778;152;27392;-78
2022/03/04 09:13:43;;;;;;;16.40;14.68;;;21.90;41.50;;;;;;928120;151;27435;-78
2022/03/04 09:16:10;;;;;;;15.90;13.98;;;22.10;41.20;;;;;;928219;151;27458;-78
2022/03/04 09:18:37;;;;;;;15.93;14.33;;;22.20;41.00;;;;;;928337;151;27334;-78
2022/03/04 09:21:03;;;;;;;20.65;18.50;;;22.20;40.80;;;;;;928285;151;27302;-78
2022/03/04 09:23:30;;;;;;;19.32;17.12;;;22.30;40.50;;;;;;928321;150;27375;-79
2022/03/04 09:25:56;;;;;;;19.25;15.58;;;22.30;38.60;;;;;;929001;150;27979;-79
2022/03/04 09:28:23;;;;;;;40.58;31.48;;;22.30;39.20;;;;;;928356;151;27379;-79
2022/03/04 09:30:49;;;;;;;22.10;19.70;;;22.10;39.20;;;;;;928346;151;27484;-80
2022/03/04 09:33:16;;;;;;;17.05;14.98;;;22.00;39.20;;;;;;928919;151;27810;-78
2022/03/04 09:35:43;;;;;;;15.95;14.30;;;21.90;39.30;;;;;;927637;151;27815;-79
2022/03/04 09:38:09;;;;;;;17.50;14.87;;;21.80;39.70;;;;;;928083;152;27371;-79
2022/03/04 09:40:36;;;;;;;15.90;14.28;;;21.80;39.80;;;;;;929906;151;27467;-79
2022/03/04 09:43:02;;;;;;;17.02;14.30;;;21.80;39.80;;;;;;928707;150;27374;-78
2022/03/04 09:45:30;;;;;;;16.55;14.10;;;21.90;39.60;;;;;;928136;152;27887;-78
2022/03/04 09:47:56;;;;;;;16.87;15.05;;;21.90;39.40;;;;;;928548;151;27389;-78
2022/03/04 09:50:22;;;;;;;17.05;15.23;;;21.80;39.20;;;;;;928436;152;27341;-79
2022/03/04 09:52:50;;;;;;;17.37;15.55;;;21.80;39.00;;;;;;928673;151;27753;-79
2022/03/04 09:55:15;;;;;;;16.75;15.05;;;21.60;38.90;;;;;;928304;152;27334;-79
2022/03/04 09:57:42;;;;;;;18.60;16.70;;;21.50;38.80;;;;;;928922;151;27281;-79
2022/03/04 10:00:11;;;;;;;16.73;14.98;;;21.30;38.40;;;;;;928813;149;27337;-79
2022/03/04 10:02:35;;;;;;;18.60;16.55;;;21.10;38.00;;;;;;928082;152;27399;-79
2022/03/04 10:05:02;;;;;;;17.77;15.38;;;20.70;37.90;;;;;;928452;152;27477;-78
2022/03/04 10:07:28;;;;;;;17.12;14.93;;;20.30;37.70;;;;;;928101;151;27352;-79
2022/03/04 10:09:57;;;;;;;16.87;15.15;;;20.00;37.90;;;;;;927399;152;27347;-78
2022/03/04 10:12:22;;;;;;;18.85;16.80;;;19.60;37.90;;;;;;928445;152;27359;-78
2022/03/04 10:15:04;;;;;;;18.40;14.53;;;19.20;38.00;;;;;;928640;151;27387;-78
2022/03/04 10:17:33;;;;;;;17.15;14.55;;;18.80;38.00;;;;;;927364;151;27331;-79
2022/03/04 10:19:59;;;;;;;17.70;14.87;;;18.40;38.20;;;;;;928001;152;27391;-78
2022/03/04 10:22:36;;;;;;;20.35;16.12;;;18.10;38.50;;;;;;927303;152;27383;-78
2022/03/04 10:25:01;;;;;;;16.93;14.65;;;17.80;38.90;;;;;;928192;152;27421;-79
2022/03/04 10:27:28;;;;;;;21.52;15.35;;;17.50;39.30;;;;;;928311;151;27356;-78
2022/03/04 10:29:54;;;;;;;17.85;15.25;;;17.30;39.20;;;;;;927415;151;27320;-79
2022/03/04 10:32:24;;;;;;;18.93;16.43;;;17.10;39.30;;;;;;928289;152;27356;-79
2022/03/04 10:34:53;;;;;;;16.75;14.33;;;16.90;39.20;;;;;;928384;152;27379;-79
2022/03/04 10:37:20;;;;;;;18.63;16.63;;;16.70;39.10;;;;;;928016;151;27380;-79
2022/03/04 10:39:58;;;;;;;17.67;15.37;;;16.40;39.00;;;;;;928096;152;27367;-79
2022/03/04 10:42:40;;;;;;;18.97;15.97;;;16.20;39.30;;;;;;928371;152;27512;-78
2022/03/04 10:45:09;;;;;;;22.50;17.00;;;15.90;39.50;;;;;;927690;152;27842;-79
2022/03/04 10:47:39;;;;;;;19.33;16.10;;;15.60;39.80;;;;;;927996;152;27862;-79
2022/03/04 10:50:05;;;;;;;19.33;16.60;;;15.40;39.90;;;;;;928623;152;27384;-78
2022/03/04 10:52:32;;;;;;;22.82;17.00;;;15.20;40.00;;;;;;928298;152;27398;-79
2022/03/04 10:54:58;;;;;;;17.93;15.50;;;15.00;40.10;;;;;;927878;152;27435;-79
2022/03/04 10:57:25;;;;;;;21.33;17.27;;;14.90;40.40;;;;;;928394;151;27367;-78
2022/03/04 10:59:55;;;;;;;22.00;17.93;;;14.70;40.60;;;;;;928374;152;27378;-79
2022/03/04 11:02:21;;;;;;;20.03;17.77;;;14.50;40.70;;;;;;926836;152;27384;-79
2022/03/04 11:04:48;;;;;;;19.87;17.67;;;14.40;40.80;;;;;;924116;152;27289;-79
2022/03/04 11:07:14;;;;;;;21.90;18.27;;;14.20;40.70;;;;;;929406;152;27379;-79
2022/03/04 11:09:41;;;;;;;19.07;15.40;;;14.00;40.80;;;;;;928425;152;27419;-78
2022/03/04 11:12:09;;;;;;;22.77;17.97;;;13.90;41.00;;;;;;928972;151;27469;-78
2022/03/04 11:14:36;;;;;;;20.67;16.77;;;13.70;41.00;;;;;;928122;152;27468;-79
2022/03/04 11:17:02;;;;;;;23.53;17.67;;;13.50;41.10;;;;;;928244;151;27787;-78
2022/03/04 11:19:29;;;;;;;21.97;17.57;;;13.40;41.50;;;;;;928605;152;27375;-79
2022/03/04 11:21:55;;;;;;;23.60;18.63;;;13.20;41.40;;;;;;928053;152;27386;-78
2022/03/04 11:24:27;;;;;;;23.07;17.47;;;13.10;41.70;;;;;;928143;151;27473;-78
2022/03/04 11:26:54;;;;;;;23.50;18.53;;;13.00;41.90;;;;;;928589;151;27423;-78
2022/03/04 11:29:36;;;;;;;21.97;18.07;;;12.90;42.00;;;;;;926875;151;27391;-79
2022/03/04 11:32:02;;;;;;;22.00;17.83;;;12.70;42.00;;;;;;926495;151;27333;-79
2022/03/04 11:34:41;;;;;;;21.97;17.70;;;12.70;42.20;;;;;;927738;151;27958;-78
2022/03/04 11:37:19;;;;;;;23.23;17.07;;;12.60;42.30;;;;;;928140;151;27865;-79
2022/03/04 11:40:04;;;;;;;20.53;15.33;;;12.50;42.30;;;;;;928321;152;27360;-79
2022/03/04 11:42:37;;;;;;;25.27;18.73;;;12.50;42.50;;;;;;928210;150;27323;-79
2022/03/04 11:45:04;;;;;;;24.40;18.03;;;12.40;42.60;;;;;;928311;152;27349;-79
2022/03/04 11:47:30;;;;;;;22.23;16.37;;;12.40;42.60;;;;;;927392;152;27343;-79
2022/03/04 11:49:57;;;;;;;20.97;16.90;;;12.30;42.60;;;;;;928069;152;27414;-79
2022/03/04 11:52:27;;;;;;;23.00;17.63;;;12.30;42.60;;;;;;928190;152;27348;-79
2022/03/04 11:55:00;;;;;;;20.47;16.13;;;12.30;42.50;;;;;;928090;152;27356;-78
2022/03/04 11:57:28;;;;;;;18.37;14.97;;;12.30;42.60;;;;;;927987;152;28726;-79
2022/03/04 11:59:57;;;;;;;23.13;17.57;;;12.20;42.70;;;;;;927645;152;27367;-79
2022/03/04 12:02:37;;;;;;;20.70;15.73;;;12.20;42.70;;;;;;926111;152;27363;-79
2022/03/04 12:05:15;;;;;;;21.87;16.87;;;12.20;42.80;;;;;;927431;152;27421;-79
2022/03/04 12:07:44;;;;;;;23.00;17.10;;;12.20;42.80;;;;;;927683;152;27439;-79
2022/03/04 12:10:13;;;;;;;20.87;16.10;;;12.10;42.80;;;;;;927444;152;27417;-80
2022/03/04 12:12:40;;;;;;;19.83;15.80;;;12.10;42.80;;;;;;928147;151;27356;-79
2022/03/04 12:15:18;;;;;;;20.60;15.97;;;12.10;42.90;;;;;;928220;152;27297;-79
2022/03/04 12:17:59;;;;;;;21.50;15.93;;;12.20;43.10;;;;;;928260;151;27405;-79
2022/03/04 12:20:41;;;;;;;22.33;16.43;;;12.20;43.30;;;;;;927485;152;27473;-79
2022/03/04 12:23:07;;;;;;;20.27;15.93;;;12.20;43.40;;;;;;929039;152;29585;-79
2022/03/04 12:25:53;;;;;;;27.27;17.67;;;12.20;43.20;;;;;;927867;152;27365;-79
2022/03/04 12:28:20;;;;;;;20.37;16.07;;;12.20;43.20;;;;;;928053;152;27325;-80
2022/03/04 12:30:45;;;;;;;20.50;16.07;;;12.20;43.10;;;;;;928498;151;27422;-79
2022/03/04 12:33:12;;;;;;;21.10;15.40;;;12.20;43.10;;;;;;928102;152;27319;-79
2022/03/04 12:35:39;;;;;;;22.43;17.20;;;12.20;43.20;;;;;;927917;152;27336;-80
2022/03/04 12:38:05;;;;;;;20.77;16.63;;;12.20;43.30;;;;;;928243;152;27469;-79
2022/03/04 12:40:32;;;;;;;18.73;15.50;;;12.20;43.20;;;;;;927713;152;27407;-79